Airfield :
LOGIN :

Register | Disclaimer

   EN    FR    IT 

 










Legend :    VFR   Marginal VFR   IFR   Intensive IFR   Very Intensive IFR
Visi :
Ceiling :
>= 8 km
>= 3000ft
5 to 8 km
1000 to 3000 ft
1500m to 5 km
500 to 1000 ft
800 to 1500m
200 to 500 ft
< 800m
< 200 ft
Symbols :   Thunderstorms  Fog  Heavy snow  Heavy precipitations  Wind > 20 kt
SIGMETs :     Misc.  Thunderstorms  Icing  Turbulence  Mountain Waves  Volcanic Ashes







- Airport Elevation : 348 ft
- IATA code : STN
- Download approach charts


EGSS - London Stansted

CURRENT METAR :
  • 181820Z AUTO 03006KT 9999 NCD 09/06 Q1027

EXPIRED METARs :
  • 181750Z AUTO 03006KT 9999 NCD 09/06 Q1027
  • 181720Z 03006KT CAVOK 10/07 Q1027
  • 181650Z AUTO 03006KT 9999 NCD 11/07 Q1027
  • 181620Z AUTO 03006KT 9999 FEW041 12/07 Q1026
  • 181550Z AUTO 03007KT 9999 FEW030 BKN037 BKN043 13/08 Q1027

TAF TAF EGSS
Valid from the 18 at 18:00 until the 20 at 00:00 UTC


181654Z 1818/1924 03006KT 9999 FEW040
TEMPO 1823/1910 5000 BR
PROB40 1900/1909 1400 BCFG BKN003
PROB40 1922/1924 5000 BR
ATIS : +44 1279 669 325
No reported NOTAMs for that airfield.



MET'MAP, your aeronautical weather chart ! - Copyright ORBIFLY December 2007 - Disclaimer

ORBIFLY MET'MAP TEAM :

Programming & Development : Alexandra Zaïnal
Concept & Development : Baudouin d'Aumeries
Co-Development & Prog : Marc-Olivier Méhu
Technical & hardware support : Manuel Goepfert

Contact : metmap@orbifly.com




SOURCES & CREDITS :

   NOAA